Time;durP1;ratioP1;P1;durP2;ratioP2;P2;SDS_P1;SDS_P2;PMS_P1;PMS_P2;Temp;Humidity;BMP_temperature;BMP_pressure;BME280_temperature;BME280_humidity;BME280_pressure;Samples;Min_cycle;Max_cycle;Signal;HPM_P1;HPM_P2
2023/06/06 00:00:53;;;;;;;3.70;3.40;;;;;;;;;;4993863;28;20222;-72
2023/06/06 00:03:57;;;;;;;4.43;3.50;;;;;;;;;;4993789;28;20194;-72
2023/06/06 00:07:03;;;;;;;3.63;3.17;;;;;;;;;;4993173;28;20202;-72
2023/06/06 00:10:08;;;;;;;4.63;3.47;;;;;;;;;;4993866;28;20178;-72
2023/06/06 00:13:13;;;;;;;3.87;3.47;;;;;;;;;;4993706;28;20182;-72
2023/06/06 00:16:17;;;;;;;4.47;3.67;;;;;;;;;;4981950;28;20182;-72
2023/06/06 00:19:22;;;;;;;4.80;3.30;;;;;;;;;;4993559;28;20201;-72
2023/06/06 00:22:27;;;;;;;3.57;3.27;;;;;;;;;;4993557;28;20213;-72
2023/06/06 00:25:31;;;;;;;4.17;3.67;;;;;;;;;;4994160;28;20499;-72
2023/06/06 00:28:35;;;;;;;6.47;3.50;;;;;;;;;;4981797;28;20645;-72
2023/06/06 00:31:40;;;;;;;4.00;3.60;;;;;;;;;;4981433;28;20225;-72
2023/06/06 00:34:44;;;;;;;3.90;3.50;;;;;;;;;;4981825;28;20625;-72
2023/06/06 00:37:49;;;;;;;3.60;3.30;;;;;;;;;;4981690;28;20626;-72
2023/06/06 00:40:53;;;;;;;4.00;3.60;;;;;;;;;;4993395;28;20697;-72
2023/06/06 00:43:57;;;;;;;4.03;3.63;;;;;;;;;;4993724;28;20183;-72
2023/06/06 00:47:02;;;;;;;7.07;3.60;;;;;;;;;;4970566;28;20182;-72
2023/06/06 00:50:08;;;;;;;4.10;3.70;;;;;;;;;;4970711;28;20174;-72
2023/06/06 00:53:13;;;;;;;4.80;4.00;;;;;;;;;;4993575;28;20182;-72
2023/06/06 00:56:19;;;;;;;5.67;3.90;;;;;;;;;;4970666;28;20634;-72
2023/06/06 00:59:24;;;;;;;5.97;4.27;;;;;;;;;;4981438;28;20210;-72
2023/06/06 01:02:28;;;;;;;5.47;3.70;;;;;;;;;;4981292;28;20222;-72
2023/06/06 01:05:32;;;;;;;4.60;4.13;;;;;;;;;;4981561;28;20201;-72
2023/06/06 01:08:37;;;;;;;4.97;4.20;;;;;;;;;;4981188;28;20198;-72
2023/06/06 01:11:58;;;;;;;4.87;4.10;;;;;;;;;;4981259;28;20222;-72
2023/06/06 01:15:16;;;;;;;4.57;4.17;;;;;;;;;;4981805;28;20186;-72
2023/06/06 01:18:21;;;;;;;7.10;4.10;;;;;;;;;;4982180;28;20666;-72
2023/06/06 01:21:35;;;;;;;5.20;4.13;;;;;;;;;;4984827;28;20253;-72
2023/06/06 01:24:44;;;;;;;5.10;3.87;;;;;;;;;;4985098;28;20182;-72
2023/06/06 01:27:53;;;;;;;4.40;4.00;;;;;;;;;;4984796;28;20186;-72
2023/06/06 01:30:57;;;;;;;3.97;3.50;;;;;;;;;;4984395;28;20209;-72
2023/06/06 01:34:48;;;;;;;7.07;4.03;;;;;;;;;;4962201;28;20486;-72
2023/06/06 01:38:07;;;;;;;4.37;3.93;;;;;;;;;;4984227;28;20179;-72
2023/06/06 01:41:16;;;;;;;4.70;3.70;;;;;;;;;;4984155;28;20226;-72
2023/06/06 01:44:21;;;;;;;5.63;3.90;;;;;;;;;;4984497;28;20526;-72
2023/06/06 01:47:27;;;;;;;4.13;3.70;;;;;;;;;;4984348;28;20653;-72
2023/06/06 01:50:32;;;;;;;5.07;4.40;;;;;;;;;;4973582;28;20171;-72
2023/06/06 01:53:37;;;;;;;4.73;3.70;;;;;;;;;;4984365;28;20186;-72
2023/06/06 01:56:41;;;;;;;4.80;4.23;;;;;;;;;;4984285;28;20186;-72
2023/06/06 01:59:45;;;;;;;4.53;3.83;;;;;;;;;;4984426;28;20210;-72
2023/06/06 02:02:49;;;;;;;4.73;4.03;;;;;;;;;;4983837;28;20198;-72
2023/06/06 02:05:53;;;;;;;4.67;4.17;;;;;;;;;;4972692;28;20661;-72
2023/06/06 02:08:57;;;;;;;5.20;4.30;;;;;;;;;;4983878;28;20202;-72
2023/06/06 02:12:02;;;;;;;6.23;3.87;;;;;;;;;;4984159;28;20226;-72
2023/06/06 02:15:07;;;;;;;5.43;4.20;;;;;;;;;;4995630;28;20225;-72
2023/06/06 02:18:12;;;;;;;5.43;4.57;;;;;;;;;;4983783;28;20514;-72
2023/06/06 02:21:16;;;;;;;4.93;4.07;;;;;;;;;;4983666;28;20218;-72
2023/06/06 02:24:20;;;;;;;5.20;4.70;;;;;;;;;;4983781;28;20645;-72
2023/06/06 02:27:26;;;;;;;5.57;4.60;;;;;;;;;;4995912;28;20516;-72
2023/06/06 02:30:30;;;;;;;5.23;4.57;;;;;;;;;;4982982;28;20179;-72
2023/06/06 02:33:34;;;;;;;5.50;4.50;;;;;;;;;;4972394;28;20634;-72
2023/06/06 02:36:38;;;;;;;6.00;4.47;;;;;;;;;;4995263;28;20206;-72
2023/06/06 02:39:43;;;;;;;5.40;4.33;;;;;;;;;;4983116;28;20198;-72
2023/06/06 02:42:48;;;;;;;5.67;4.93;;;;;;;;;;4983461;28;20284;-72
2023/06/06 02:45:53;;;;;;;6.23;4.67;;;;;;;;;;4983562;28;20638;-72
2023/06/06 02:48:57;;;;;;;6.90;4.80;;;;;;;;;;4982995;28;20626;-72
2023/06/06 02:52:02;;;;;;;7.17;5.03;;;;;;;;;;4971700;28;20221;-72
2023/06/06 02:55:07;;;;;;;6.27;4.63;;;;;;;;;;4983381;28;20178;-72
2023/06/06 02:58:28;;;;;;;5.67;4.17;;;;;;;;;;4983077;28;20183;-72
2023/06/06 03:01:35;;;;;;;5.30;4.70;;;;;;;;;;4994610;28;20559;-72
2023/06/06 03:04:40;;;;;;;6.73;4.77;;;;;;;;;;4983290;28;20183;-72
2023/06/06 03:07:44;;;;;;;4.70;4.30;;;;;;;;;;4994643;28;20210;-72
2023/06/06 03:10:51;;;;;;;5.13;4.40;;;;;;;;;;4994601;28;20210;-72
2023/06/06 03:13:55;;;;;;;6.93;4.17;;;;;;;;;;4982543;28;20190;-72
2023/06/06 03:16:59;;;;;;;5.87;4.30;;;;;;;;;;4982524;28;20182;-72
2023/06/06 03:20:06;;;;;;;5.73;4.97;;;;;;;;;;4982814;28;20662;-72
2023/06/06 03:23:12;;;;;;;5.17;4.67;;;;;;;;;;4982441;28;20182;-72
2023/06/06 03:26:19;;;;;;;5.07;4.50;;;;;;;;;;4982372;28;20633;-72
2023/06/06 03:29:23;;;;;;;5.40;4.37;;;;;;;;;;4982489;28;20179;-72
2023/06/06 03:32:27;;;;;;;5.13;4.10;;;;;;;;;;4971035;28;20217;-72
2023/06/06 03:35:33;;;;;;;6.53;4.73;;;;;;;;;;4982508;28;20185;-72
2023/06/06 03:38:39;;;;;;;7.30;4.50;;;;;;;;;;4962986;28;20638;-72
2023/06/06 03:41:44;;;;;;;5.53;4.50;;;;;;;;;;4950870;28;20567;-72
2023/06/06 03:44:48;;;;;;;5.13;4.50;;;;;;;;;;4952019;28;20204;-72
2023/06/06 03:47:53;;;;;;;7.67;4.53;;;;;;;;;;4962890;28;20175;-72
2023/06/06 03:50:57;;;;;;;5.03;4.40;;;;;;;;;;4975023;28;20214;-72
2023/06/06 03:54:02;;;;;;;7.07;4.67;;;;;;;;;;4962687;28;20198;-72
2023/06/06 03:57:08;;;;;;;5.10;4.27;;;;;;;;;;4951486;28;20198;-73
2023/06/06 04:00:14;;;;;;;6.50;4.97;;;;;;;;;;4962658;28;20206;-74
2023/06/06 04:03:20;;;;;;;5.47;4.13;;;;;;;;;;4962761;28;20183;-73
2023/06/06 04:06:25;;;;;;;5.77;5.03;;;;;;;;;;4956917;28;20209;-73
2023/06/06 04:09:29;;;;;;;5.43;4.20;;;;;;;;;;4994165;28;20186;-73
2023/06/06 04:12:33;;;;;;;6.10;4.77;;;;;;;;;;4982105;28;20221;-73
2023/06/06 04:15:37;;;;;;;7.90;4.73;;;;;;;;;;4981381;28;20190;-73
2023/06/06 04:18:41;;;;;;;6.03;4.60;;;;;;;;;;4993445;28;20531;-74
2023/06/06 04:21:46;;;;;;;6.00;4.20;;;;;;;;;;4981704;28;20221;-73
2023/06/06 04:24:51;;;;;;;5.60;4.60;;;;;;;;;;4970538;28;20547;-73
2023/06/06 04:27:55;;;;;;;8.27;5.10;;;;;;;;;;4981705;28;20202;-73
2023/06/06 04:31:01;;;;;;;5.23;4.30;;;;;;;;;;4981639;28;20209;-73
2023/06/06 04:34:05;;;;;;;6.50;4.73;;;;;;;;;;4981628;28;20182;-73
2023/06/06 04:37:10;;;;;;;4.77;4.37;;;;;;;;;;4981721;28;20198;-72
2023/06/06 04:40:15;;;;;;;9.37;4.90;;;;;;;;;;4981681;28;20670;-73
2023/06/06 04:43:23;;;;;;;4.77;4.27;;;;;;;;;;4981660;28;20183;-73
2023/06/06 04:46:29;;;;;;;5.87;4.33;;;;;;;;;;4970503;28;20182;-73
2023/06/06 04:49:35;;;;;;;5.83;4.80;;;;;;;;;;4981594;28;20538;-73
2023/06/06 04:52:39;;;;;;;9.43;4.53;;;;;;;;;;4981524;28;20218;-73
2023/06/06 04:55:43;;;;;;;5.13;3.90;;;;;;;;;;4997102;28;20198;-73
2023/06/06 04:58:48;;;;;;;4.77;4.30;;;;;;;;;;4984961;28;20186;-73
2023/06/06 05:01:53;;;;;;;6.93;4.50;;;;;;;;;;4996977;28;20214;-73
2023/06/06 05:05:01;;;;;;;6.07;4.50;;;;;;;;;;4996788;28;20174;-73
2023/06/06 05:08:06;;;;;;;7.27;4.27;;;;;;;;;;4984837;28;20558;-73
2023/06/06 05:11:11;;;;;;;6.53;4.10;;;;;;;;;;4996867;28;20213;-73
2023/06/06 05:14:15;;;;;;;6.47;4.60;;;;;;;;;;4996805;28;20174;-73
2023/06/06 05:17:26;;;;;;;8.07;4.90;;;;;;;;;;4996793;28;20530;-73
2023/06/06 05:20:30;;;;;;;7.60;4.90;;;;;;;;;;4984695;28;20206;-73
2023/06/06 05:23:34;;;;;;;5.70;4.73;;;;;;;;;;4984483;28;20178;-73
2023/06/06 05:26:38;;;;;;;5.63;4.70;;;;;;;;;;4984633;28;20182;-72
2023/06/06 05:29:42;;;;;;;4.63;4.20;;;;;;;;;;4982899;28;20201;-72
2023/06/06 05:32:46;;;;;;;4.87;4.37;;;;;;;;;;4984882;28;20194;-73
2023/06/06 05:35:50;;;;;;;6.97;5.20;;;;;;;;;;4996638;28;20186;-73
2023/06/06 05:38:54;;;;;;;5.20;4.33;;;;;;;;;;4983971;28;20634;-73
2023/06/06 05:41:58;;;;;;;6.90;4.80;;;;;;;;;;4996741;28;20214;-73
2023/06/06 05:45:02;;;;;;;5.97;4.73;;;;;;;;;;4996715;28;20629;-73
2023/06/06 05:48:07;;;;;;;5.10;4.27;;;;;;;;;;4996380;28;20515;-73
2023/06/06 05:51:11;;;;;;;4.60;4.10;;;;;;;;;;4996456;28;20713;-72
2023/06/06 05:54:15;;;;;;;6.40;5.00;;;;;;;;;;4995987;28;20194;-73
2023/06/06 05:57:22;;;;;;;6.37;4.90;;;;;;;;;;4995979;28;20562;-72
2023/06/06 06:00:29;;;;;;;6.27;4.97;;;;;;;;;;4995788;28;20206;-73
2023/06/06 06:03:34;;;;;;;6.87;4.80;;;;;;;;;;4984109;28;20178;-73
2023/06/06 06:06:38;;;;;;;6.10;4.47;;;;;;;;;;4983373;28;20194;-73
2023/06/06 06:09:43;;;;;;;5.33;4.77;;;;;;;;;;4995991;28;20178;-73
2023/06/06 06:12:47;;;;;;;12.63;4.80;;;;;;;;;;4995702;28;20186;-72
2023/06/06 06:15:51;;;;;;;6.97;5.13;;;;;;;;;;4995758;28;20190;-73
2023/06/06 06:18:56;;;;;;;5.00;4.17;;;;;;;;;;4983825;28;20626;-73
2023/06/06 06:22:00;;;;;;;6.60;4.87;;;;;;;;;;4972579;28;20218;-73
2023/06/06 06:25:05;;;;;;;8.50;5.20;;;;;;;;;;4983777;28;20221;-73
2023/06/06 06:28:20;;;;;;;5.67;4.90;;;;;;;;;;4995411;28;20638;-73
2023/06/06 06:31:24;;;;;;;7.17;4.90;;;;;;;;;;4995279;28;20222;-73
2023/06/06 06:34:28;;;;;;;8.47;4.73;;;;;;;;;;4996124;28;20183;-72
2023/06/06 06:37:37;;;;;;;5.80;5.00;;;;;;;;;;4983779;28;20645;-73
2023/06/06 06:40:41;;;;;;;5.20;4.37;;;;;;;;;;4983255;28;20237;-73
2023/06/06 06:43:45;;;;;;;4.83;4.40;;;;;;;;;;4995379;28;20177;-73
2023/06/06 06:46:54;;;;;;;5.10;4.20;;;;;;;;;;4983339;28;20558;-73
2023/06/06 06:49:59;;;;;;;7.23;5.10;;;;;;;;;;4983466;28;20178;-73
2023/06/06 06:53:04;;;;;;;4.90;4.40;;;;;;;;;;4983262;28;20535;-73
2023/06/06 06:56:09;;;;;;;6.37;4.33;;;;;;;;;;4995379;28;20205;-73
2023/06/06 06:59:13;;;;;;;5.30;4.40;;;;;;;;;;4971715;28;20198;-73
2023/06/06 07:02:19;;;;;;;5.60;4.73;;;;;;;;;;4982980;28;20209;-73
2023/06/06 07:05:23;;;;;;;5.23;4.60;;;;;;;;;;4982918;28;20646;-74
2023/06/06 07:08:28;;;;;;;6.70;4.57;;;;;;;;;;4982610;28;20198;-73
2023/06/06 07:11:32;;;;;;;6.57;4.63;;;;;;;;;;4994832;28;20696;-73
2023/06/06 07:14:36;;;;;;;4.67;4.20;;;;;;;;;;4994465;28;20194;-73
2023/06/06 07:17:42;;;;;;;5.30;4.63;;;;;;;;;;4994519;28;20202;-73
2023/06/06 07:20:46;;;;;;;9.43;4.47;;;;;;;;;;4994540;28;20229;-73
2023/06/06 07:23:50;;;;;;;5.47;4.00;;;;;;;;;;4982455;28;20178;-73
2023/06/06 07:26:54;;;;;;;6.00;4.40;;;;;;;;;;4994820;28;20178;-73
2023/06/06 07:29:58;;;;;;;5.07;4.10;;;;;;;;;;4994404;28;20190;-73
2023/06/06 07:33:03;;;;;;;6.47;4.30;;;;;;;;;;4994198;28;20538;-73
2023/06/06 07:36:12;;;;;;;6.13;4.40;;;;;;;;;;4994232;28;20186;-74
2023/06/06 07:39:21;;;;;;;7.20;4.17;;;;;;;;;;4994265;28;20186;-73
2023/06/06 07:42:26;;;;;;;12.20;4.10;;;;;;;;;;4982151;28;20214;-73
2023/06/06 07:45:30;;;;;;;5.70;4.43;;;;;;;;;;4982217;28;20186;-73
2023/06/06 07:48:34;;;;;;;7.53;4.80;;;;;;;;;;4982326;28;20185;-73
2023/06/06 07:51:38;;;;;;;6.67;4.30;;;;;;;;;;4994107;28;20217;-73
2023/06/06 07:54:43;;;;;;;4.67;3.53;;;;;;;;;;4994150;28;20182;-73
2023/06/06 07:57:47;;;;;;;5.10;3.83;;;;;;;;;;4994177;28;20186;-73
2023/06/06 08:00:51;;;;;;;6.30;3.90;;;;;;;;;;4993691;28;20229;-74
2023/06/06 08:03:56;;;;;;;6.43;3.97;;;;;;;;;;4981811;28;20197;-74
2023/06/06 08:07:03;;;;;;;4.67;3.80;;;;;;;;;;4981635;28;20194;-74
2023/06/06 08:10:08;;;;;;;4.60;4.07;;;;;;;;;;4982370;28;20186;-73
2023/06/06 08:13:14;;;;;;;4.27;3.87;;;;;;;;;;4993688;28;20511;-73
2023/06/06 08:16:18;;;;;;;3.97;3.57;;;;;;;;;;4982068;28;20174;-73
2023/06/06 08:19:23;;;;;;;3.63;3.33;;;;;;;;;;4993857;28;20202;-73
2023/06/06 08:22:27;;;;;;;4.67;3.30;;;;;;;;;;4981759;28;20693;-73
2023/06/06 08:25:32;;;;;;;6.97;3.30;;;;;;;;;;4993749;28;20190;-74
2023/06/06 08:28:36;;;;;;;2.73;2.40;;;;;;;;;;4995518;28;20182;-74
2023/06/06 08:31:42;;;;;;;3.13;2.83;;;;;;;;;;4997549;28;20209;-73
2023/06/06 08:34:46;;;;;;;3.23;2.83;;;;;;;;;;4985762;28;20200;-74
2023/06/06 08:37:50;;;;;;;4.37;3.53;;;;;;;;;;4997746;28;20186;-74
2023/06/06 08:40:56;;;;;;;4.10;3.70;;;;;;;;;;4997169;28;20233;-73
2023/06/06 08:44:05;;;;;;;4.77;3.47;;;;;;;;;;4997920;28;20188;-74
2023/06/06 08:47:10;;;;;;;3.60;3.30;;;;;;;;;;4985520;28;20203;-74
2023/06/06 08:50:15;;;;;;;3.80;3.50;;;;;;;;;;4985804;28;20186;-74
2023/06/06 08:53:20;;;;;;;4.27;3.37;;;;;;;;;;4974430;28;20191;-74
2023/06/06 08:56:25;;;;;;;3.90;3.60;;;;;;;;;;4985601;28;20629;-74
2023/06/06 08:59:29;;;;;;;4.28;3.60;;;;;;;;;;4997293;28;20186;-74
2023/06/06 09:02:33;;;;;;;4.38;3.50;;;;;;;;;;4997207;28;20214;-74
2023/06/06 09:05:38;;;;;;;5.80;3.10;;;;;;;;;;4985208;28;20183;-74
2023/06/06 09:08:44;;;;;;;3.60;3.30;;;;;;;;;;4997036;28;20209;-74
2023/06/06 09:11:48;;;;;;;4.40;2.75;;;;;;;;;;4997127;28;20209;-73
2023/06/06 09:14:52;;;;;;;3.20;2.90;;;;;;;;;;4985053;28;20188;-74
2023/06/06 09:17:56;;;;;;;5.00;2.38;;;;;;;;;;4997011;28;20181;-74
2023/06/06 09:21:01;;;;;;;1.55;1.45;;;;;;;;;;4996899;28;20233;-73
2023/06/06 09:24:06;;;;;;;1.95;1.70;;;;;;;;;;4996804;28;20180;-73
2023/06/06 09:27:29;;;;;;;1.60;1.50;;;;;;;;;;4996924;28;20524;-74
2023/06/06 09:30:35;;;;;;;1.98;1.60;;;;;;;;;;4984908;28;20184;-73
2023/06/06 09:33:39;;;;;;;3.83;1.90;;;;;;;;;;4996937;28;20203;-74
2023/06/06 09:36:44;;;;;;;2.60;1.40;;;;;;;;;;4996943;28;20183;-74
2023/06/06 09:40:15;;;;;;;1.63;1.23;;;;;;;;;;4996585;28;20178;-74
2023/06/06 09:43:24;;;;;;;2.65;1.50;;;;;;;;;;4984643;28;20518;-73
2023/06/06 09:46:28;;;;;;;3.28;1.70;;;;;;;;;;4984525;28;20635;-73
2023/06/06 09:49:36;;;;;;;9.30;1.90;;;;;;;;;;4996634;28;20191;-73
2023/06/06 09:52:41;;;;;;;1.90;1.53;;;;;;;;;;4996237;28;20220;-73
2023/06/06 09:55:46;;;;;;;2.83;1.77;;;;;;;;;;4996280;28;20194;-73
2023/06/06 09:58:55;;;;;;;2.67;2.30;;;;;;;;;;4996547;28;20185;-73
2023/06/06 10:02:05;;;;;;;2.87;2.10;;;;;;;;;;4995851;28;20698;-73
2023/06/06 10:05:15;;;;;;;3.10;2.03;;;;;;;;;;4996170;28;20546;-74
2023/06/06 10:08:21;;;;;;;2.60;2.30;;;;;;;;;;4983734;28;20210;-73
2023/06/06 10:11:26;;;;;;;5.83;2.53;;;;;;;;;;4995870;28;20219;-73
2023/06/06 10:14:30;;;;;;;4.27;2.27;;;;;;;;;;4983944;28;20188;-73
2023/06/06 10:17:38;;;;;;;3.33;2.00;;;;;;;;;;4995693;28;20182;-73
2023/06/06 10:20:44;;;;;;;2.53;2.00;;;;;;;;;;4983757;28;20210;-73
2023/06/06 10:23:48;;;;;;;2.77;2.20;;;;;;;;;;4995484;28;20198;-73
2023/06/06 10:27:20;;;;;;;2.60;2.40;;;;;;;;;;4995747;28;20196;-73
2023/06/06 10:30:43;;;;;;;2.70;2.40;;;;;;;;;;4983742;28;20524;-73
2023/06/06 10:33:54;;;;;;;5.43;2.70;;;;;;;;;;4972807;28;20188;-74
2023/06/06 10:37:22;;;;;;;2.43;2.23;;;;;;;;;;4983310;28;20198;-73
2023/06/06 10:40:27;;;;;;;4.07;2.13;;;;;;;;;;4983729;28;20514;-73
2023/06/06 10:43:34;;;;;;;3.43;2.90;;;;;;;;;;4983704;28;20185;-73
2023/06/06 10:46:40;;;;;;;2.50;2.30;;;;;;;;;;4983251;28;20176;-73
2023/06/06 10:50:02;;;;;;;9.27;2.77;;;;;;;;;;4995325;28;20185;-73
2023/06/06 10:53:16;;;;;;;2.77;2.07;;;;;;;;;;4995128;28;20180;-74
2023/06/06 10:56:32;;;;;;;2.47;2.10;;;;;;;;;;4983245;28;20181;-74
2023/06/06 10:59:36;;;;;;;3.40;2.13;;;;;;;;;;4983131;28;20633;-73
2023/06/06 11:02:41;;;;;;;2.57;1.90;;;;;;;;;;4972114;28;20224;-73
2023/06/06 11:06:00;;;;;;;2.23;2.03;;;;;;;;;;4995029;28;20182;-73
2023/06/06 11:09:25;;;;;;;4.23;2.70;;;;;;;;;;4982565;28;20659;-73
2023/06/06 11:12:30;;;;;;;3.23;2.37;;;;;;;;;;4995019;28;20221;-74
2023/06/06 11:15:34;;;;;;;2.67;2.47;;;;;;;;;;4994794;28;20283;-73
2023/06/06 11:18:42;;;;;;;2.67;2.43;;;;;;;;;;4994451;28;20176;-74
2023/06/06 11:21:48;;;;;;;2.63;1.77;;;;;;;;;;4994368;28;20228;-73
2023/06/06 11:24:55;;;;;;;3.15;1.98;;;;;;;;;;4994951;28;20185;-74
2023/06/06 11:28:00;;;;;;;2.38;1.90;;;;;;;;;;4994480;28;20632;-74
2023/06/06 11:31:05;;;;;;;2.63;1.85;;;;;;;;;;4988317;23;20241;-75
2023/06/06 11:34:12;;;;;;;2.17;1.90;;;;;;;;;;4974643;28;20186;-74
2023/06/06 11:37:16;;;;;;;2.97;2.20;;;;;;;;;;4974687;28;20640;-73
2023/06/06 11:40:20;;;;;;;2.80;2.30;;;;;;;;;;4974982;28;20182;-74
2023/06/06 11:43:25;;;;;;;3.70;2.47;;;;;;;;;;4963805;28;20527;-74
2023/06/06 11:46:30;;;;;;;6.78;2.50;;;;;;;;;;4975233;28;20180;-74
2023/06/06 11:49:45;;;;;;;8.38;3.08;;;;;;;;;;4963639;28;20183;-74
2023/06/06 11:52:50;;;;;;;3.80;2.67;;;;;;;;;;4974544;28;20517;-72
2023/06/06 11:55:54;;;;;;;7.22;2.58;;;;;;;;;;4974096;28;20644;-73
2023/06/06 11:58:58;;;;;;;4.68;3.13;;;;;;;;;;4974982;28;20193;-73
2023/06/06 12:02:03;;;;;;;4.32;2.40;;;;;;;;;;4974376;28;20705;-74
2023/06/06 12:05:17;;;;;;;3.53;2.50;;;;;;;;;;4974931;28;20193;-75
2023/06/06 12:08:22;;;;;;;3.92;2.65;;;;;;;;;;4975126;28;20197;-74
2023/06/06 12:11:27;;;;;;;4.05;2.88;;;;;;;;;;4974893;28;20225;-74
2023/06/06 12:14:32;;;;;;;9.13;3.20;;;;;;;;;;4974316;28;20179;-74
2023/06/06 12:17:37;;;;;;;4.38;2.90;;;;;;;;;;4974722;28;20188;-74
2023/06/06 12:20:42;;;;;;;3.92;3.00;;;;;;;;;;4973803;28;20215;-73
2023/06/06 12:23:46;;;;;;;5.15;3.05;;;;;;;;;;4974561;28;20176;-73
2023/06/06 12:27:02;;;;;;;3.15;2.72;;;;;;;;;;4975131;28;20626;-74
2023/06/06 12:30:07;;;;;;;3.65;2.90;;;;;;;;;;4974697;28;20209;-74
2023/06/06 12:33:11;;;;;;;2.78;2.50;;;;;;;;;;4962507;28;20185;-74
2023/06/06 12:36:20;;;;;;;5.00;2.90;;;;;;;;;;4973868;28;20544;-74
2023/06/06 12:39:25;;;;;;;4.25;2.90;;;;;;;;;;4973772;28;20202;-73
2023/06/06 12:42:30;;;;;;;3.15;2.83;;;;;;;;;;4974087;28;20228;-74
2023/06/06 12:45:37;;;;;;;3.85;2.30;;;;;;;;;;4962285;28;20196;-75
2023/06/06 12:48:42;;;;;;;4.30;2.50;;;;;;;;;;4974720;28;20180;-74
2023/06/06 12:51:46;;;;;;;3.08;1.88;;;;;;;;;;4974355;28;20216;-74
2023/06/06 12:54:51;;;;;;;2.35;1.90;;;;;;;;;;4973402;28;20524;-74
2023/06/06 12:57:55;;;;;;;4.07;1.70;;;;;;;;;;4974298;28;20526;-73
2023/06/06 13:00:59;;;;;;;2.00;1.65;;;;;;;;;;4974084;28;20224;-73
2023/06/06 13:04:04;;;;;;;1.60;1.48;;;;;;;;;;4974255;28;20184;-74
2023/06/06 13:07:09;;;;;;;1.85;1.38;;;;;;;;;;4974219;28;20182;-73
2023/06/06 13:10:13;;;;;;;2.22;1.67;;;;;;;;;;4974262;28;20187;-74
2023/06/06 13:13:17;;;;;;;1.88;1.50;;;;;;;;;;4974369;28;20523;-74
2023/06/06 13:16:22;;;;;;;4.95;1.50;;;;;;;;;;4977571;28;20179;-74
2023/06/06 13:19:27;;;;;;;3.55;1.35;;;;;;;;;;4977694;28;20196;-73
2023/06/06 13:22:31;;;;;;;2.35;1.85;;;;;;;;;;4977621;28;20703;-74
2023/06/06 13:25:35;;;;;;;1.83;1.40;;;;;;;;;;4977751;28;20193;-74
2023/06/06 13:28:39;;;;;;;1.67;1.40;;;;;;;;;;4977086;28;20532;-74
2023/06/06 13:31:44;;;;;;;1.70;1.60;;;;;;;;;;4965380;28;20226;-74
2023/06/06 13:34:49;;;;;;;1.50;1.40;;;;;;;;;;4978129;28;20177;-74
2023/06/06 13:37:53;;;;;;;2.28;1.77;;;;;;;;;;4976831;28;20665;-74
2023/06/06 13:40:56;;;;;;;1.65;1.52;;;;;;;;;;4976705;28;20214;-74
2023/06/06 13:44:01;;;;;;;1.80;1.60;;;;;;;;;;4977382;28;20181;-73
2023/06/06 13:47:05;;;;;;;3.00;1.65;;;;;;;;;;4965783;28;20187;-73
2023/06/06 13:50:10;;;;;;;1.98;1.77;;;;;;;;;;4977573;28;20185;-73
2023/06/06 13:53:14;;;;;;;2.70;1.60;;;;;;;;;;4977453;28;20334;-74
2023/06/06 13:56:22;;;;;;;2.63;1.77;;;;;;;;;;4977179;28;20184;-74
2023/06/06 13:59:27;;;;;;;2.17;1.52;;;;;;;;;;4977070;28;20204;-74
2023/06/06 14:02:31;;;;;;;2.17;1.38;;;;;;;;;;4977370;28;20223;-73
2023/06/06 14:05:35;;;;;;;1.95;1.77;;;;;;;;;;4976407;28;20190;-74
2023/06/06 14:08:41;;;;;;;2.70;1.77;;;;;;;;;;4965124;28;20184;-75
2023/06/06 14:11:49;;;;;;;2.90;1.80;;;;;;;;;;4976904;28;20309;-74
2023/06/06 14:14:53;;;;;;;2.13;1.92;;;;;;;;;;4977289;28;20180;-74
2023/06/06 14:17:57;;;;;;;2.38;1.70;;;;;;;;;;4976190;28;20527;-74
2023/06/06 14:21:19;;;;;;;2.05;1.80;;;;;;;;;;4976426;28;20219;-73
2023/06/06 14:24:25;;;;;;;3.20;1.70;;;;;;;;;;4975779;28;20178;-73
2023/06/06 14:27:32;;;;;;;2.13;1.52;;;;;;;;;;4976045;28;20634;-74
2023/06/06 14:30:37;;;;;;;2.83;1.83;;;;;;;;;;4976093;28;20217;-74
2023/06/06 14:33:43;;;;;;;3.72;1.88;;;;;;;;;;4975720;28;20641;-74
2023/06/06 14:36:47;;;;;;;2.90;1.90;;;;;;;;;;4976401;28;20187;-74
2023/06/06 14:39:51;;;;;;;1.75;1.60;;;;;;;;;;4975330;28;20645;-74
2023/06/06 14:42:55;;;;;;;3.25;1.52;;;;;;;;;;4976103;28;20212;-74
2023/06/06 14:45:59;;;;;;;1.85;1.67;;;;;;;;;;4975225;28;20182;-73
2023/06/06 14:49:03;;;;;;;3.47;1.70;;;;;;;;;;4975190;28;20187;-74
2023/06/06 14:52:10;;;;;;;2.00;1.45;;;;;;;;;;4975027;28;20694;-74
2023/06/06 14:55:14;;;;;;;1.85;1.40;;;;;;;;;;4975975;28;20182;-73
2023/06/06 14:58:18;;;;;;;1.70;1.55;;;;;;;;;;4976034;28;20179;-74
2023/06/06 15:01:22;;;;;;;1.77;1.67;;;;;;;;;;4975981;28;20218;-74
2023/06/06 15:04:34;;;;;;;1.45;1.35;;;;;;;;;;4975418;28;20670;-74
2023/06/06 15:07:38;;;;;;;1.60;1.15;;;;;;;;;;4975154;28;20186;-74
2023/06/06 15:10:43;;;;;;;1.38;1.20;;;;;;;;;;4974681;28;20226;-73
2023/06/06 15:13:47;;;;;;;1.50;1.25;;;;;;;;;;4974960;28;20186;-74
2023/06/06 15:16:55;;;;;;;1.60;1.20;;;;;;;;;;4975183;28;20191;-74
2023/06/06 15:19:59;;;;;;;2.45;1.27;;;;;;;;;;4974140;28;20183;-73
2023/06/06 15:23:03;;;;;;;3.95;1.40;;;;;;;;;;4975232;28;20211;-75
2023/06/06 15:26:07;;;;;;;6.25;1.40;;;;;;;;;;4974359;28;20179;-74
2023/06/06 15:29:13;;;;;;;1.60;1.50;;;;;;;;;;4975603;28;20186;-74
2023/06/06 15:32:17;;;;;;;1.50;1.30;;;;;;;;;;4974216;28;20229;-74
2023/06/06 15:35:21;;;;;;;1.92;1.58;;;;;;;;;;4975353;28;20189;-74
2023/06/06 15:38:25;;;;;;;1.80;1.65;;;;;;;;;;4973983;28;20190;-74
2023/06/06 15:41:29;;;;;;;1.67;1.58;;;;;;;;;;4973765;28;20211;-74
2023/06/06 15:44:33;;;;;;;1.85;1.50;;;;;;;;;;4974179;28;20186;-74
2023/06/06 15:47:37;;;;;;;1.63;1.52;;;;;;;;;;4974686;28;20640;-74
2023/06/06 15:50:42;;;;;;;1.80;1.70;;;;;;;;;;4973976;28;20547;-74
2023/06/06 15:53:45;;;;;;;2.15;1.48;;;;;;;;;;4962794;28;20204;-74
2023/06/06 15:56:50;;;;;;;1.73;1.55;;;;;;;;;;4974622;28;20184;-74
2023/06/06 15:59:54;;;;;;;1.80;1.52;;;;;;;;;;4974440;28;20189;-73
2023/06/06 16:02:58;;;;;;;2.85;1.63;;;;;;;;;;4974358;28;20212;-74
2023/06/06 16:06:03;;;;;;;2.97;1.48;;;;;;;;;;4974204;28;20184;-73
2023/06/06 16:09:07;;;;;;;4.72;2.72;;;;;;;;;;4974142;28;20202;-73
2023/06/06 16:12:11;;;;;;;3.38;2.35;;;;;;;;;;4974050;28;20695;-73
2023/06/06 16:15:15;;;;;;;5.07;2.57;;;;;;;;;;4973219;28;20184;-73
2023/06/06 16:18:20;;;;;;;2.77;2.37;;;;;;;;;;4974104;28;20182;-74
2023/06/06 16:21:24;;;;;;;2.83;2.50;;;;;;;;;;4962458;28;20217;-73
2023/06/06 16:24:29;;;;;;;2.40;2.20;;;;;;;;;;4989400;28;20567;-73
2023/06/06 16:27:33;;;;;;;5.33;3.00;;;;;;;;;;4954450;29;20203;-74
2023/06/06 16:30:37;;;;;;;5.43;3.00;;;;;;;;;;4953723;29;20208;-73
2023/06/06 16:33:41;;;;;;;4.27;3.00;;;;;;;;;;4954446;29;20181;-73
2023/06/06 16:36:45;;;;;;;5.57;2.97;;;;;;;;;;4954832;29;20187;-73
2023/06/06 16:39:49;;;;;;;3.33;2.97;;;;;;;;;;4953934;29;20190;-74
2023/06/06 16:42:53;;;;;;;3.20;2.63;;;;;;;;;;4954951;29;20226;-73
2023/06/06 16:45:57;;;;;;;3.23;2.90;;;;;;;;;;4954336;29;20203;-74
2023/06/06 16:49:01;;;;;;;6.60;3.03;;;;;;;;;;4955129;28;20684;-73
2023/06/06 16:52:06;;;;;;;5.50;2.80;;;;;;;;;;4957367;29;20715;-73
2023/06/06 16:55:10;;;;;;;4.70;2.90;;;;;;;;;;4957630;29;20181;-73
2023/06/06 16:58:14;;;;;;;3.53;3.23;;;;;;;;;;4958654;29;20176;-73
2023/06/06 17:01:18;;;;;;;3.40;2.70;;;;;;;;;;4958033;29;20225;-73
2023/06/06 17:04:23;;;;;;;4.03;2.90;;;;;;;;;;4957901;29;20217;-73
2023/06/06 17:07:27;;;;;;;5.63;4.60;;;;;;;;;;4958260;29;20225;-73
2023/06/06 17:10:32;;;;;;;4.50;4.10;;;;;;;;;;4958064;29;20190;-73
2023/06/06 17:13:36;;;;;;;4.10;3.80;;;;;;;;;;4958923;29;20185;-75
2023/06/06 17:16:40;;;;;;;4.53;3.97;;;;;;;;;;4958163;29;20184;-74
2023/06/06 17:19:44;;;;;;;5.23;4.03;;;;;;;;;;4957384;29;20185;-73
2023/06/06 17:22:48;;;;;;;5.63;3.77;;;;;;;;;;4957198;29;20632;-73
2023/06/06 17:25:53;;;;;;;6.27;3.87;;;;;;;;;;4958564;29;20184;-74
2023/06/06 17:28:57;;;;;;;4.97;3.50;;;;;;;;;;4958501;29;20199;-74
2023/06/06 17:32:01;;;;;;;11.37;3.87;;;;;;;;;;4988278;23;20243;-73
2023/06/06 17:35:07;;;;;;;4.37;3.10;;;;;;;;;;4996671;28;20186;-73
2023/06/06 17:38:10;;;;;;;6.53;3.30;;;;;;;;;;4996722;28;20182;-73
2023/06/06 17:41:15;;;;;;;4.40;3.33;;;;;;;;;;4996237;28;20218;-73
2023/06/06 17:44:19;;;;;;;3.50;3.20;;;;;;;;;;4984444;28;20202;-73
2023/06/06 17:47:24;;;;;;;4.73;3.20;;;;;;;;;;4996511;28;20186;-73
2023/06/06 17:50:28;;;;;;;6.63;3.47;;;;;;;;;;4996253;28;20186;-73
2023/06/06 17:53:32;;;;;;;8.30;3.43;;;;;;;;;;4984444;28;20190;-73
2023/06/06 17:56:36;;;;;;;4.07;3.60;;;;;;;;;;4996244;28;20191;-74
2023/06/06 17:59:41;;;;;;;4.40;3.20;;;;;;;;;;4983966;28;20182;-73
2023/06/06 18:02:45;;;;;;;6.53;3.20;;;;;;;;;;4995780;28;20558;-74
2023/06/06 18:05:49;;;;;;;5.90;3.57;;;;;;;;;;4984132;28;20174;-73
2023/06/06 18:08:53;;;;;;;3.50;3.03;;;;;;;;;;4983933;28;20186;-74
2023/06/06 18:11:58;;;;;;;4.13;3.33;;;;;;;;;;4995933;28;20222;-74
2023/06/06 18:15:02;;;;;;;3.77;3.20;;;;;;;;;;4995919;28;20182;-74
2023/06/06 18:18:06;;;;;;;6.13;3.10;;;;;;;;;;4984340;28;20503;-73
2023/06/06 18:21:10;;;;;;;3.67;3.30;;;;;;;;;;4961775;28;20557;-73
2023/06/06 18:24:14;;;;;;;3.60;3.20;;;;;;;;;;4972458;28;20201;-73
2023/06/06 18:27:19;;;;;;;3.87;2.83;;;;;;;;;;4996043;28;20186;-73
2023/06/06 18:30:23;;;;;;;3.97;3.17;;;;;;;;;;4983332;28;20530;-73
2023/06/06 18:33:27;;;;;;;4.43;3.27;;;;;;;;;;4995525;28;20202;-73